createdAt,value
2018-12-02T00:08:48.397Z,30.23
2018-12-02T00:18:52.941Z,27.63
2018-12-02T00:28:57.387Z,31.20
2018-12-02T00:39:01.649Z,27.10
2018-12-02T00:49:05.603Z,32.10
2018-12-02T00:59:09.931Z,31.30
2018-12-02T01:09:14.351Z,33.70
2018-12-02T01:19:18.813Z,28.73
2018-12-02T01:29:22.820Z,32.40
2018-12-02T01:39:27.129Z,30.33
2018-12-02T01:49:31.100Z,28.43
2018-12-02T01:59:35.430Z,31.00
2018-12-02T02:09:39.480Z,31.13
2018-12-02T02:19:43.764Z,28.73
2018-12-02T02:29:48.158Z,30.23
2018-12-02T02:39:52.660Z,32.40
2018-12-02T02:49:57.202Z,29.73
2018-12-02T03:00:01.571Z,30.77
2018-12-02T03:10:07.089Z,31.37
2018-12-02T03:20:13.384Z,30.00
2018-12-02T03:30:19.572Z,31.93
2018-12-02T03:40:24.934Z,33.87
2018-12-02T03:50:29.277Z,27.37
2018-12-02T04:00:33.872Z,33.33
2018-12-02T04:10:38.429Z,32.90
2018-12-02T04:20:42.977Z,28.53
2018-12-02T04:30:47.503Z,34.27
2018-12-02T04:40:51.561Z,31.20
2018-12-02T04:50:55.913Z,32.13
2018-12-02T05:01:00.455Z,32.50
2018-12-02T05:11:04.911Z,32.77
2018-12-02T05:21:09.399Z,30.13
2018-12-02T05:31:13.819Z,30.77
2018-12-02T05:41:18.258Z,32.20
2018-12-02T05:51:22.669Z,29.27
2018-12-02T06:01:27.090Z,31.77
2018-12-02T06:11:31.077Z,32.43
2018-12-02T06:21:35.387Z,32.33
2018-12-02T06:31:39.767Z,30.33
2018-12-02T06:41:44.245Z,34.97
2018-12-02T06:51:48.764Z,29.70
2018-12-02T07:02:00.791Z,28.97
2018-12-02T07:12:05.283Z,27.00
2018-12-02T07:22:28.085Z,31.10
2018-12-02T07:32:32.517Z,29.43
2018-12-02T07:42:42.661Z,27.53
2018-12-02T07:52:47.113Z,25.40
2018-12-02T08:02:51.164Z,27.63
2018-12-02T08:12:55.582Z,30.93
2018-12-02T08:23:00.060Z,30.70
2018-12-02T08:33:04.493Z,25.80
2018-12-02T08:43:09.525Z,26.10
2018-12-02T08:53:13.878Z,34.27
2018-12-02T09:03:18.369Z,31.20
2018-12-02T09:13:22.741Z,30.27
2018-12-02T09:23:27.740Z,29.90
2018-12-02T09:33:32.294Z,31.00
2018-12-02T09:43:36.308Z,28.90
2018-12-02T09:53:40.659Z,37.13
2018-12-02T10:03:45.098Z,30.50
2018-12-02T10:13:49.090Z,33.53
2018-12-02T10:23:53.828Z,32.00
2018-12-02T10:33:58.285Z,30.70
2018-12-02T10:44:02.827Z,33.83
2018-12-02T10:54:10.483Z,35.50
2018-12-02T11:04:14.587Z,30.97
2018-12-02T11:14:19.037Z,30.53
2018-12-02T11:24:23.637Z,32.30
2018-12-02T11:34:28.147Z,29.07
2018-12-02T11:44:32.621Z,28.93
2018-12-02T11:54:37.158Z,26.27
2018-12-02T12:04:41.847Z,28.03
2018-12-02T12:14:46.234Z,29.70
2018-12-02T12:24:50.221Z,27.33
2018-12-02T12:34:54.823Z,26.67
2018-12-02T12:44:59.289Z,25.90
2018-12-02T12:55:03.992Z,26.77
2018-12-02T13:05:10.279Z,30.13
2018-12-02T13:15:18.676Z,26.13
2018-12-02T13:25:23.172Z,26.27
2018-12-02T13:35:27.867Z,27.67
2018-12-02T13:45:32.799Z,22.50
2018-12-02T13:55:37.317Z,22.23
2018-12-02T14:05:43.994Z,24.70
2018-12-02T14:15:57.794Z,25.23
2018-12-02T14:26:04.863Z,27.37
2018-12-02T14:36:09.226Z,25.87
2018-12-02T14:46:13.750Z,25.60
2018-12-02T14:56:18.287Z,24.90
2018-12-02T15:06:22.895Z,23.60
2018-12-02T15:16:27.670Z,24.03
2018-12-02T15:26:32.156Z,24.03
2018-12-02T15:36:36.242Z,25.10
2018-12-02T15:46:40.755Z,25.43
2018-12-02T15:56:45.318Z,22.40
2018-12-02T16:06:50.089Z,27.90
2018-12-02T16:16:54.693Z,23.27
2018-12-02T16:26:59.499Z,23.93
2018-12-02T16:37:03.763Z,23.57
2018-12-02T16:47:08.328Z,21.93
2018-12-02T16:57:12.782Z,23.07
2018-12-02T17:07:17.243Z,21.40
2018-12-02T17:17:21.784Z,22.23
2018-12-02T17:27:26.353Z,26.30
2018-12-02T17:37:32.266Z,24.13
2018-12-02T17:47:37.312Z,27.07
2018-12-02T17:57:41.982Z,22.97
2018-12-02T18:07:46.426Z,23.00
2018-12-02T18:17:51.077Z,25.70
2018-12-02T18:27:55.564Z,27.90
2018-12-02T18:38:02.336Z,26.13
2018-12-02T18:48:06.940Z,27.23
2018-12-02T18:58:11.926Z,27.20
2018-12-02T19:08:16.021Z,23.40
2018-12-02T19:18:20.431Z,24.60
2018-12-02T19:28:25.150Z,22.43
2018-12-02T19:38:29.255Z,23.87
2018-12-02T19:48:33.330Z,23.00
2018-12-02T20:20:50.962Z,32.23
2018-12-02T20:30:55.673Z,22.97
2018-12-02T20:40:59.788Z,23.93
2018-12-02T20:51:04.231Z,27.93
2018-12-02T21:01:09.071Z,21.27
2018-12-02T21:11:13.414Z,28.30
2018-12-02T21:21:17.805Z,25.97
2018-12-02T21:31:22.217Z,26.87
2018-12-02T21:41:26.236Z,29.50
2018-12-02T21:51:30.203Z,22.77
2018-12-02T22:01:34.526Z,24.93
2018-12-02T22:11:38.983Z,28.60
2018-12-02T22:21:43.547Z,27.03
2018-12-02T22:31:48.134Z,27.10
2018-12-02T22:41:52.552Z,27.53
2018-12-02T22:51:57.012Z,25.63
2018-12-02T23:02:06.710Z,21.57
2018-12-02T23:12:11.333Z,22.37
2018-12-02T23:22:15.586Z,24.27
2018-12-02T23:32:19.962Z,20.83
2018-12-02T23:42:24.311Z,21.27
2018-12-02T23:52:28.303Z,24.50
